createdAt,value
2022-12-29T07:08:47.612Z,6.93
2022-12-29T07:11:25.104Z,6.77
2022-12-29T07:14:02.041Z,7.37
2022-12-29T07:16:39.405Z,7.00
2022-12-29T07:19:16.390Z,7.00
2022-12-29T07:21:54.412Z,7.00
2022-12-29T07:24:33.931Z,6.47
2022-12-29T07:27:11.532Z,7.30
2022-12-29T07:29:48.424Z,6.70
2022-12-29T07:32:25.794Z,7.30
2022-12-29T07:35:02.742Z,6.60
2022-12-29T07:37:39.992Z,7.07
2022-12-29T07:40:19.880Z,6.57
2022-12-29T07:42:57.051Z,6.77
2022-12-29T07:45:42.881Z,6.97
2022-12-29T07:48:20.102Z,6.30
2022-12-29T07:50:57.744Z,6.90
2022-12-29T07:53:35.144Z,7.40
2022-12-29T07:56:14.841Z,6.57
2022-12-29T07:58:52.362Z,6.13
2022-12-29T08:01:29.901Z,7.63
2022-12-29T08:04:08.018Z,7.57
2022-12-29T08:06:46.733Z,6.90
2022-12-29T08:09:24.551Z,8.10
2022-12-29T08:12:04.406Z,6.90
2022-12-29T08:14:42.099Z,6.97
2022-12-29T08:17:18.980Z,6.50
2022-12-29T08:19:56.304Z,7.20
2022-12-29T08:22:33.082Z,6.03
2022-12-29T08:25:11.381Z,5.97
2022-12-29T08:27:50.871Z,5.60
2022-12-29T08:30:28.126Z,5.80
2022-12-29T08:33:05.089Z,5.83
2022-12-29T08:35:42.383Z,7.07
2022-12-29T08:38:19.337Z,6.30
2022-12-29T08:40:57.028Z,5.63
2022-12-29T08:43:36.905Z,5.57
2022-12-29T08:46:14.362Z,6.17
2022-12-29T08:48:51.544Z,5.70
2022-12-29T08:51:29.021Z,6.10
2022-12-29T08:54:06.098Z,5.67
2022-12-29T08:56:43.409Z,5.40
2022-12-29T08:59:23.270Z,5.53
2022-12-29T09:02:03.021Z,6.17
2022-12-29T09:04:40.297Z,6.10
2022-12-29T09:07:17.724Z,5.80
2022-12-29T09:09:54.809Z,6.00
2022-12-29T09:12:36.336Z,6.50
2022-12-29T09:15:16.940Z,5.87
2022-12-29T09:17:54.359Z,5.87
2022-12-29T09:20:31.380Z,6.00
2022-12-29T09:23:10.277Z,6.17
2022-12-29T09:25:47.416Z,5.87
2022-12-29T09:28:25.077Z,5.53
2022-12-29T09:31:05.661Z,5.77
2022-12-29T09:33:43.257Z,5.80
2022-12-29T09:36:20.222Z,5.93
2022-12-29T09:38:58.732Z,5.97
2022-12-29T09:41:43.341Z,5.30
2022-12-29T09:44:30.515Z,6.30
2022-12-29T09:47:14.961Z,6.83
2022-12-29T09:49:57.474Z,6.10
2022-12-29T09:52:40.510Z,5.67
2022-12-29T09:55:22.109Z,5.70
2022-12-29T09:58:04.393Z,5.70
2022-12-29T10:00:55.201Z,6.00
2022-12-29T10:03:51.389Z,6.07
2022-12-29T10:06:41.344Z,5.57
2022-12-29T10:09:50.650Z,5.55
2022-12-29T10:12:41.782Z,5.77
2022-12-29T10:15:33.819Z,5.50
2022-12-29T10:18:28.423Z,5.73
2022-12-29T10:21:19.174Z,8.43
2022-12-29T10:23:58.513Z,6.97
2022-12-29T10:26:42.228Z,5.43
2022-12-29T10:29:23.488Z,4.67
2022-12-29T10:32:06.504Z,4.83
2022-12-29T10:34:49.472Z,4.88
2022-12-29T10:37:41.353Z,4.40
2022-12-29T10:40:29.090Z,4.77
2022-12-29T10:43:21.139Z,4.53
2022-12-29T10:46:03.023Z,4.43
2022-12-29T10:48:40.735Z,4.20
2022-12-29T10:51:26.056Z,4.73
2022-12-29T10:54:14.987Z,4.50
2022-12-29T10:56:58.227Z,4.53
2022-12-29T10:59:38.241Z,4.70
2022-12-29T11:02:47.833Z,5.00
2022-12-29T11:05:35.439Z,4.30
2022-12-29T11:08:18.632Z,4.80
2022-12-29T11:11:07.825Z,4.93
2022-12-29T11:13:53.954Z,5.30
2022-12-29T11:16:37.445Z,4.50
2022-12-29T11:19:27.189Z,5.00
2022-12-29T11:22:24.923Z,4.37
2022-12-29T11:25:17.275Z,4.30
2022-12-29T11:28:18.755Z,4.40
2022-12-29T11:31:05.781Z,4.87
2022-12-29T11:33:43.635Z,4.57
2022-12-29T11:36:25.400Z,4.23
2022-12-29T11:39:02.381Z,4.53
2022-12-29T11:41:39.747Z,4.33
2022-12-29T11:44:19.416Z,4.27
2022-12-29T11:46:58.392Z,4.70
2022-12-29T11:49:35.546Z,3.97
2022-12-29T11:52:13.160Z,3.87
2022-12-29T11:54:50.114Z,4.77
2022-12-29T11:57:28.768Z,4.60
2022-12-29T12:00:20.637Z,4.33
2022-12-29T12:03:05.074Z,4.60
2022-12-29T12:05:51.695Z,4.67
2022-12-29T12:08:40.222Z,4.47
2022-12-29T12:11:22.862Z,5.13
2022-12-29T12:14:06.857Z,4.67
2022-12-29T12:17:15.980Z,4.83
2022-12-29T12:20:02.603Z,4.20
2022-12-29T12:22:43.393Z,4.27
2022-12-29T12:25:26.034Z,4.40
2022-12-29T12:28:08.709Z,4.43
2022-12-29T12:30:51.458Z,4.28
2022-12-29T12:33:35.862Z,4.27
2022-12-29T12:36:50.738Z,4.53
2022-12-29T12:39:37.826Z,4.13
2022-12-29T12:42:36.018Z,4.90
2022-12-29T12:45:47.264Z,4.50
2022-12-29T12:49:08.277Z,4.60
2022-12-29T12:51:59.483Z,4.27
2022-12-29T12:55:07.782Z,4.57
2022-12-29T12:57:58.817Z,4.30
2022-12-29T13:00:44.325Z,4.50
2022-12-29T13:03:36.049Z,4.10
2022-12-29T13:06:30.394Z,4.00
2022-12-29T13:09:42.881Z,4.53
2022-12-29T13:12:36.122Z,4.07
2022-12-29T13:15:35.046Z,4.43
2022-12-29T13:18:26.227Z,4.83
2022-12-29T13:21:10.720Z,4.13
2022-12-29T13:24:00.351Z,4.20
2022-12-29T13:26:42.291Z,3.80
2022-12-29T13:29:27.827Z,3.90
2022-12-29T13:32:25.062Z,4.00
2022-12-29T13:35:45.591Z,4.00
2022-12-29T13:38:28.551Z,3.80
2022-12-29T13:41:13.154Z,3.40
2022-12-29T13:43:52.344Z,3.67
2022-12-29T13:46:37.695Z,3.53
2022-12-29T13:49:21.371Z,3.80
2022-12-29T13:52:02.083Z,4.80
2022-12-29T13:54:50.700Z,4.23
2022-12-29T13:57:44.220Z,5.00
2022-12-29T14:00:24.829Z,4.80
2022-12-29T14:03:30.903Z,4.20
2022-12-29T14:06:27.061Z,4.20
2022-12-29T14:09:07.004Z,3.83
2022-12-29T14:11:45.705Z,4.00
2022-12-29T14:14:29.128Z,4.07
2022-12-29T14:17:16.064Z,4.22
2022-12-29T14:19:58.084Z,4.77
2022-12-29T14:22:35.781Z,4.60
2022-12-29T14:26:13.604Z,4.27
2022-12-29T14:28:53.061Z,4.37
2022-12-29T14:31:42.490Z,4.10
2022-12-29T14:34:48.794Z,4.67
2022-12-29T14:37:32.254Z,4.57
2022-12-29T14:40:23.573Z,4.73
2022-12-29T14:43:01.757Z,4.77
2022-12-29T14:45:40.419Z,4.80
2022-12-29T14:48:48.033Z,4.53
2022-12-29T14:51:36.088Z,5.00
2022-12-29T14:54:51.801Z,5.47
2022-12-29T14:57:43.660Z,5.47
2022-12-29T15:00:27.513Z,5.23
2022-12-29T15:05:53.145Z,5.13
2022-12-29T15:08:34.681Z,4.80
2022-12-29T15:11:19.812Z,4.70
2022-12-29T15:13:57.088Z,4.60
2022-12-29T15:16:38.194Z,4.90
2022-12-29T15:19:27.707Z,5.83
2022-12-29T15:22:07.699Z,4.63
2022-12-29T15:24:47.102Z,5.20
2022-12-29T15:27:27.961Z,5.80
2022-12-29T15:30:13.919Z,5.50
2022-12-29T15:32:55.965Z,4.93
2022-12-29T15:35:36.927Z,5.20
2022-12-29T15:38:32.236Z,5.00
2022-12-29T15:41:25.139Z,5.13
2022-12-29T15:44:16.482Z,6.23
2022-12-29T15:46:53.625Z,5.60
2022-12-29T15:49:32.588Z,5.23
2022-12-29T15:52:13.307Z,5.30
2022-12-29T15:54:56.988Z,5.40
2022-12-29T15:57:41.212Z,5.32
2022-12-29T16:00:29.641Z,5.50
2022-12-29T16:03:09.476Z,5.07
2022-12-29T16:05:53.816Z,5.17
2022-12-29T16:08:41.184Z,5.73
2022-12-29T16:11:31.837Z,5.03
2022-12-29T16:14:16.725Z,5.57
2022-12-29T16:16:56.949Z,5.27
2022-12-29T16:19:38.010Z,4.63
2022-12-29T16:22:21.826Z,5.00
2022-12-29T16:25:05.108Z,4.68
2022-12-29T16:27:47.656Z,4.83
2022-12-29T16:30:33.122Z,5.03
2022-12-29T16:33:43.999Z,4.87
2022-12-29T16:36:37.046Z,5.40
2022-12-29T16:39:28.748Z,6.35
2022-12-29T16:42:26.029Z,5.50
2022-12-29T16:45:42.018Z,9.03
2022-12-29T16:48:25.606Z,11.53
2022-12-29T16:51:09.975Z,6.33
2022-12-29T16:53:53.717Z,10.63
2022-12-29T16:56:34.246Z,16.07
2022-12-29T16:59:21.239Z,7.77
2022-12-29T17:02:03.627Z,5.50
2022-12-29T17:04:40.975Z,4.67
2022-12-29T17:07:22.450Z,3.87
2022-12-29T17:09:59.759Z,3.80
2022-12-29T17:12:39.735Z,3.83
2022-12-29T17:15:25.682Z,3.40
2022-12-29T17:18:10.176Z,3.33
2022-12-29T17:20:50.473Z,2.87
2022-12-29T17:23:27.974Z,3.00
2022-12-29T17:26:05.887Z,4.00
2022-12-29T17:28:43.387Z,8.40
2022-12-29T17:31:20.710Z,8.10
2022-12-29T17:34:01.553Z,6.47
2022-12-29T17:36:38.469Z,5.00
2022-12-29T17:39:16.029Z,4.40
2022-12-29T17:41:53.365Z,5.37
2022-12-29T17:44:30.933Z,5.07
2022-12-29T17:47:08.236Z,5.03
2022-12-29T17:49:48.829Z,5.57
2022-12-29T17:52:26.159Z,4.83
2022-12-29T17:55:03.678Z,5.50
2022-12-29T17:57:41.018Z,4.40
2022-12-29T18:00:24.558Z,6.57
2022-12-29T18:03:02.647Z,6.30
2022-12-29T18:05:43.276Z,5.83
2022-12-29T18:08:21.306Z,5.00
2022-12-29T18:11:00.178Z,5.07
2022-12-29T18:13:45.799Z,4.57
2022-12-29T18:16:24.907Z,4.90
2022-12-29T18:19:02.078Z,5.03
2022-12-29T18:21:48.870Z,3.97
2022-12-29T18:24:26.481Z,4.67
2022-12-29T18:27:05.717Z,4.33
2022-12-29T18:29:43.095Z,4.43
2022-12-29T18:32:21.673Z,4.73
2022-12-29T18:34:59.058Z,3.83
2022-12-29T18:37:39.403Z,3.67
2022-12-29T18:40:17.357Z,4.40
2022-12-29T18:42:54.832Z,4.10
2022-12-29T18:45:34.959Z,4.37
2022-12-29T18:48:12.565Z,4.40
2022-12-29T18:50:52.373Z,4.13
2022-12-29T18:53:37.993Z,4.13
2022-12-29T18:56:15.162Z,4.23
2022-12-29T18:58:55.058Z,3.90
2022-12-29T19:01:35.137Z,5.40
2022-12-29T19:04:18.429Z,4.83
2022-12-29T19:06:58.233Z,4.37
2022-12-29T19:09:40.617Z,4.30
2022-12-29T19:12:26.457Z,4.37
2022-12-29T19:15:11.120Z,4.23
2022-12-29T19:18:16.013Z,3.97
2022-12-29T19:20:54.637Z,4.73
2022-12-29T19:23:35.201Z,4.03
2022-12-29T19:26:39.592Z,4.73
2022-12-29T19:29:23.208Z,4.33
2022-12-29T19:32:05.455Z,4.20
2022-12-29T19:34:49.177Z,3.97
2022-12-29T19:37:29.747Z,4.53
2022-12-29T19:40:13.064Z,4.37
2022-12-29T19:42:57.919Z,4.00
2022-12-29T19:45:38.062Z,3.90
2022-12-29T19:48:23.405Z,3.90
2022-12-29T19:51:20.062Z,3.47
2022-12-29T19:54:04.868Z,4.43
2022-12-29T19:56:50.392Z,3.97
2022-12-29T19:59:34.923Z,3.53
2022-12-29T20:02:24.931Z,3.47
2022-12-29T20:05:06.197Z,3.47
2022-12-29T20:07:48.829Z,4.23
2022-12-29T20:10:31.331Z,4.55
2022-12-29T20:13:11.718Z,4.03
2022-12-29T20:16:04.458Z,4.00
2022-12-29T20:18:45.511Z,4.05
2022-12-29T20:21:29.935Z,4.20
2022-12-29T20:24:12.152Z,4.13
2022-12-29T20:26:56.006Z,3.57
2022-12-29T20:29:40.162Z,3.73
2022-12-29T20:32:27.614Z,2.90
2022-12-29T20:35:07.289Z,3.33
2022-12-29T20:37:48.762Z,3.20
2022-12-29T20:40:29.379Z,3.13
2022-12-29T20:43:10.964Z,3.10
2022-12-29T20:45:54.380Z,2.80
2022-12-29T20:48:39.705Z,3.13
2022-12-29T20:51:20.604Z,3.03
2022-12-29T20:54:01.156Z,2.57
2022-12-29T20:56:40.768Z,3.10
2022-12-29T20:59:28.840Z,2.97
2022-12-29T21:02:10.173Z,3.30
2022-12-29T21:07:55.292Z,4.33
2022-12-29T21:10:36.437Z,2.87
2022-12-29T21:13:17.624Z,3.00
2022-12-29T21:16:04.227Z,2.90
2022-12-29T21:18:44.654Z,2.60
2022-12-29T21:21:28.895Z,2.63
2022-12-29T21:24:09.155Z,2.40
2022-12-29T21:26:49.497Z,2.63
2022-12-29T21:29:28.387Z,2.60
2022-12-29T21:32:09.793Z,2.30
2022-12-29T21:34:51.245Z,2.57
2022-12-29T21:37:34.480Z,2.70
2022-12-29T21:40:15.380Z,2.70
2022-12-29T21:42:56.308Z,2.47
2022-12-29T21:45:36.069Z,2.50
2022-12-29T21:48:29.648Z,2.63
2022-12-29T21:51:30.431Z,2.80
2022-12-29T21:54:27.323Z,2.87
2022-12-29T21:57:06.333Z,6.90
2022-12-29T21:59:58.094Z,2.80
2022-12-29T22:02:49.760Z,3.07
2022-12-29T22:05:41.912Z,2.87
2022-12-29T22:08:34.705Z,2.60
2022-12-29T22:11:29.123Z,2.80
2022-12-29T22:14:09.273Z,2.87
2022-12-29T22:16:49.482Z,2.50
2022-12-29T22:19:29.263Z,2.10
2022-12-29T22:22:09.263Z,2.57
2022-12-29T22:24:48.761Z,2.50
2022-12-29T22:27:32.036Z,2.50
2022-12-29T22:30:12.887Z,2.90
2022-12-29T22:32:54.457Z,2.70
2022-12-29T22:35:35.418Z,2.97
2022-12-29T22:38:16.301Z,2.23
2022-12-29T22:40:55.848Z,2.67
2022-12-29T22:43:38.584Z,2.80
2022-12-29T22:46:18.618Z,2.60
2022-12-29T22:49:00.999Z,2.47
2022-12-29T22:51:41.156Z,2.60
2022-12-29T22:54:21.289Z,2.67
2022-12-29T22:57:00.154Z,2.60
2022-12-29T22:59:42.457Z,2.53
